createdAt,value
2023-03-04T00:00:29.778Z,54.08
2023-03-04T00:03:17.200Z,55.85
2023-03-04T00:05:44.844Z,57.55
2023-03-04T00:08:12.245Z,55.22
2023-03-04T00:10:39.562Z,54.55
2023-03-04T00:13:07.019Z,57.08
2023-03-04T00:15:34.147Z,60.53
2023-03-04T00:18:01.618Z,63.85
2023-03-04T00:20:28.762Z,61.63
2023-03-04T00:22:56.238Z,60.88
2023-03-04T00:25:23.380Z,65.10
2023-03-04T00:27:50.950Z,65.53
2023-03-04T00:30:18.274Z,49.30
2023-03-04T00:32:46.059Z,45.28
2023-03-04T00:35:13.378Z,48.90
2023-03-04T00:37:40.966Z,44.50
2023-03-04T00:40:09.504Z,47.92
2023-03-04T00:42:37.388Z,43.67
2023-03-04T00:45:05.634Z,39.75
2023-03-04T00:47:33.117Z,39.72
2023-03-04T00:50:00.292Z,40.72
2023-03-04T00:52:27.900Z,39.60
2023-03-04T00:54:55.448Z,37.85
2023-03-04T00:57:22.903Z,37.60
2023-03-04T00:59:50.052Z,37.92
2023-03-04T01:02:17.642Z,39.33
2023-03-04T01:04:45.105Z,37.10
2023-03-04T01:07:12.660Z,39.45
2023-03-04T01:09:39.869Z,37.42
2023-03-04T01:12:07.589Z,39.22
2023-03-04T01:14:34.891Z,41.58
2023-03-04T01:17:02.511Z,41.05
2023-03-04T01:19:29.776Z,40.53
2023-03-04T01:21:57.336Z,39.35
2023-03-04T01:24:24.575Z,43.97
2023-03-04T01:26:52.028Z,42.15
2023-03-04T01:29:19.388Z,44.47
2023-03-04T01:31:46.886Z,44.60
2023-03-04T01:34:14.588Z,42.30
2023-03-04T01:36:42.033Z,46.83
2023-03-04T01:39:09.243Z,43.85
2023-03-04T01:41:36.762Z,39.03
2023-03-04T01:44:04.330Z,42.40
2023-03-04T01:46:32.167Z,42.70
2023-03-04T01:49:00.078Z,38.10
2023-03-04T01:51:27.888Z,38.13
2023-03-04T01:53:55.460Z,37.15
2023-03-04T01:56:25.443Z,39.42
2023-03-04T01:59:21.320Z,36.50
2023-03-04T02:02:01.848Z,35.85
2023-03-04T02:04:32.835Z,33.72
2023-03-04T02:07:01.981Z,36.30
2023-03-04T02:09:30.804Z,34.83
2023-03-04T02:11:58.743Z,32.78
2023-03-04T02:14:26.307Z,34.38
2023-03-04T02:16:53.780Z,32.50
2023-03-04T02:19:23.752Z,32.60
2023-03-04T02:21:51.388Z,32.10
2023-03-04T02:24:40.476Z,32.28
2023-03-04T02:27:08.253Z,29.05
2023-03-04T02:29:35.925Z,28.67
2023-03-04T02:32:04.482Z,31.48
2023-03-04T02:34:35.472Z,28.95
2023-03-04T02:37:04.076Z,26.88
2023-03-04T02:39:34.234Z,30.98
2023-03-04T02:42:03.201Z,28.63
2023-03-04T02:44:35.767Z,28.25
2023-03-04T02:47:06.194Z,26.75
2023-03-04T02:49:34.146Z,28.90
2023-03-04T02:52:23.452Z,28.20
2023-03-04T02:54:51.431Z,27.17
2023-03-04T02:57:19.253Z,26.55
2023-03-04T02:59:51.300Z,27.60
2023-03-04T03:02:22.465Z,26.85
2023-03-04T03:04:49.770Z,28.52
2023-03-04T03:07:20.093Z,26.38
2023-03-04T03:09:47.614Z,26.60
2023-03-04T03:12:15.156Z,25.77
2023-03-04T03:14:42.345Z,27.17
2023-03-04T03:17:12.435Z,27.55
2023-03-04T03:19:39.729Z,27.42
2023-03-04T03:22:08.946Z,27.55
2023-03-04T03:24:36.204Z,29.23
2023-03-04T03:27:03.857Z,30.25
2023-03-04T03:29:31.665Z,30.13
2023-03-04T03:31:59.591Z,30.88
2023-03-04T03:34:26.797Z,29.67
2023-03-04T03:36:54.604Z,31.50
2023-03-04T03:39:22.285Z,32.47
2023-03-04T03:41:50.094Z,32.85
2023-03-04T03:44:17.252Z,31.70
2023-03-04T03:46:44.750Z,32.35
2023-03-04T03:49:11.908Z,30.88
2023-03-04T03:51:39.432Z,31.98
2023-03-04T03:54:06.569Z,30.00
2023-03-04T03:56:34.165Z,29.67
2023-03-04T03:59:01.392Z,31.63
2023-03-04T04:01:28.856Z,28.77
2023-03-04T04:03:56.012Z,29.30
2023-03-04T04:06:23.505Z,29.50
2023-03-04T04:08:50.651Z,29.92
2023-03-04T04:11:18.410Z,28.55
2023-03-04T04:13:45.810Z,28.10
2023-03-04T04:16:13.277Z,26.50
2023-03-04T04:18:40.493Z,28.40
2023-03-04T04:21:07.942Z,26.50
2023-03-04T04:23:35.131Z,28.85
2023-03-04T04:26:02.602Z,25.58
2023-03-04T04:28:29.805Z,25.48
2023-03-04T04:30:57.237Z,24.45
2023-03-04T04:33:24.489Z,23.27
2023-03-04T04:35:52.002Z,26.88
2023-03-04T04:38:19.506Z,22.95
2023-03-04T04:40:46.915Z,24.88
2023-03-04T04:43:14.288Z,23.83
2023-03-04T04:45:42.725Z,23.27
2023-03-04T04:48:09.916Z,21.60
2023-03-04T04:50:37.347Z,23.20
2023-03-04T04:53:04.486Z,23.20
2023-03-04T04:55:32.129Z,21.48
2023-03-04T04:57:59.287Z,23.38
2023-03-04T05:00:27.056Z,22.60
2023-03-04T05:02:54.225Z,22.05
2023-03-04T05:05:21.649Z,21.98
2023-03-04T05:07:48.813Z,22.40
2023-03-04T05:10:16.399Z,20.88
2023-03-04T05:12:45.033Z,24.08
2023-03-04T05:15:12.523Z,22.83
2023-03-04T05:17:39.653Z,23.83
2023-03-04T05:20:08.834Z,22.58
2023-03-04T05:22:36.156Z,22.55
2023-03-04T05:25:04.020Z,24.75
2023-03-04T05:27:31.196Z,22.63
2023-03-04T05:30:01.880Z,25.63
2023-03-04T05:32:29.076Z,24.50
2023-03-04T05:34:56.613Z,23.67
2023-03-04T05:37:23.771Z,26.67
2023-03-04T05:39:51.338Z,24.48
2023-03-04T05:42:18.460Z,26.13
2023-03-04T05:44:45.895Z,23.92
2023-03-04T05:47:13.081Z,24.73
2023-03-04T05:49:41.782Z,26.27
2023-03-04T05:52:08.902Z,27.92
2023-03-04T05:54:36.309Z,24.38
2023-03-04T05:57:03.578Z,23.75
2023-03-04T05:59:31.113Z,27.17
2023-03-04T06:01:58.778Z,27.45
2023-03-04T06:04:26.276Z,25.15
2023-03-04T06:06:53.524Z,24.38
2023-03-04T06:09:21.527Z,24.95
2023-03-04T06:11:48.703Z,24.95
2023-03-04T06:14:16.319Z,26.85
2023-03-04T06:16:43.494Z,25.35
2023-03-04T06:19:10.917Z,25.27
2023-03-04T06:21:38.318Z,25.73
2023-03-04T06:24:06.093Z,27.75
2023-03-04T06:26:33.230Z,26.38
2023-03-04T06:29:00.827Z,27.65
2023-03-04T06:31:28.124Z,27.70
2023-03-04T06:33:55.704Z,25.75
2023-03-04T06:36:22.894Z,26.42
2023-03-04T06:38:51.086Z,28.50
2023-03-04T06:41:18.413Z,25.98
2023-03-04T06:43:45.895Z,28.52
2023-03-04T06:46:13.099Z,26.50
2023-03-04T06:48:40.554Z,27.80
2023-03-04T06:51:11.936Z,30.50
2023-03-04T06:53:40.521Z,28.37
2023-03-04T06:56:09.172Z,28.58
2023-03-04T06:58:36.734Z,27.98
2023-03-04T07:01:22.212Z,28.65
2023-03-04T07:03:50.525Z,28.10
2023-03-04T07:06:20.777Z,27.98
2023-03-04T07:08:48.776Z,31.33
2023-03-04T07:11:16.673Z,34.42
2023-03-04T07:13:44.577Z,30.02
2023-03-04T07:16:15.201Z,29.58
2023-03-04T07:18:42.624Z,28.58
2023-03-04T07:21:10.040Z,29.20
2023-03-04T07:23:37.628Z,28.38
2023-03-04T07:26:05.414Z,28.35
2023-03-04T07:28:33.084Z,29.60
2023-03-04T07:31:24.007Z,28.40
2023-03-04T07:33:52.099Z,28.17
2023-03-04T07:36:19.922Z,29.63
2023-03-04T07:38:48.917Z,26.70
2023-03-04T07:41:17.383Z,30.35
2023-03-04T07:43:45.407Z,28.48
2023-03-04T07:46:12.937Z,28.38
2023-03-04T07:48:40.471Z,28.20
2023-03-04T07:51:12.842Z,28.25
2023-03-04T07:53:42.270Z,29.50
2023-03-04T07:56:19.115Z,27.52
2023-03-04T07:58:46.551Z,29.35
2023-03-04T08:01:19.632Z,28.17
2023-03-04T08:03:47.389Z,28.20
2023-03-04T08:06:17.199Z,29.02
2023-03-04T08:08:45.202Z,27.30
2023-03-04T08:11:18.818Z,27.38
2023-03-04T08:13:47.188Z,28.75
2023-03-04T08:16:16.908Z,26.75
2023-03-04T08:18:49.251Z,26.88
2023-03-04T08:21:19.437Z,26.30
2023-03-04T08:23:47.909Z,27.38
2023-03-04T08:26:19.710Z,23.58
2023-03-04T08:28:48.456Z,22.88
2023-03-04T08:31:18.222Z,24.90
2023-03-04T08:33:46.829Z,26.95
2023-03-04T08:36:15.361Z,26.08
2023-03-04T08:38:43.220Z,27.58
2023-03-04T08:41:11.378Z,24.98
2023-03-04T08:43:39.268Z,27.23
2023-03-04T08:46:08.061Z,26.80
2023-03-04T08:48:36.528Z,27.45
2023-03-04T08:51:08.979Z,26.48
2023-03-04T08:53:37.733Z,23.52
2023-03-04T08:56:06.186Z,24.85
2023-03-04T08:58:33.840Z,25.23
2023-03-04T09:01:02.118Z,23.20
2023-03-04T09:03:29.820Z,25.83
2023-03-04T09:05:57.113Z,24.23
2023-03-04T09:08:25.235Z,24.88
2023-03-04T09:10:54.341Z,25.13
2023-03-04T09:13:25.168Z,24.42
2023-03-04T09:15:53.679Z,25.20
2023-03-04T09:18:23.965Z,24.75
2023-03-04T09:20:51.919Z,24.17
2023-03-04T09:23:19.682Z,23.13
2023-03-04T09:25:47.777Z,25.35
2023-03-04T09:28:17.269Z,23.63
2023-03-04T09:30:44.924Z,23.63
2023-03-04T09:33:13.268Z,23.02
2023-03-04T09:35:40.688Z,23.92
2023-03-04T09:38:08.386Z,23.48
2023-03-04T09:40:41.945Z,21.92
2023-03-04T09:43:27.578Z,24.85
2023-03-04T09:45:58.541Z,25.55
2023-03-04T09:48:29.054Z,23.80
2023-03-04T09:51:19.567Z,23.45
2023-03-04T09:54:16.468Z,26.30
2023-03-04T09:56:43.879Z,23.98
2023-03-04T09:59:30.115Z,23.85
2023-03-04T10:02:12.024Z,22.50
2023-03-04T10:04:47.178Z,25.30
2023-03-04T10:07:26.193Z,26.23
2023-03-04T10:10:03.535Z,22.70
2023-03-04T10:12:34.305Z,24.40
2023-03-04T10:15:07.725Z,24.70
2023-03-04T10:17:38.230Z,25.58
2023-03-04T10:20:25.931Z,23.35
2023-03-04T10:23:05.958Z,21.83
2023-03-04T10:25:34.236Z,23.63
2023-03-04T10:28:29.357Z,23.65
2023-03-04T10:30:59.680Z,22.58
2023-03-04T10:33:30.687Z,23.27
2023-03-04T10:36:06.942Z,22.92
2023-03-04T10:38:40.687Z,23.40
2023-03-04T10:41:19.050Z,24.08
2023-03-04T10:44:00.105Z,22.83
2023-03-04T10:46:27.933Z,22.90
2023-03-04T10:48:55.469Z,26.48
2023-03-04T10:51:29.026Z,22.45
2023-03-04T10:54:05.877Z,25.60
2023-03-04T10:56:52.739Z,27.17
2023-03-04T10:59:40.075Z,26.02
2023-03-04T11:02:26.959Z,24.50
2023-03-04T11:05:07.937Z,26.20
2023-03-04T11:07:55.548Z,25.63
2023-03-04T11:10:52.286Z,23.98
2023-03-04T11:13:22.472Z,24.42
2023-03-04T11:15:58.300Z,26.60
2023-03-04T11:18:37.602Z,25.42
2023-03-04T11:21:07.427Z,27.73
2023-03-04T11:23:48.188Z,27.45
2023-03-04T11:26:23.353Z,28.38
2023-03-04T11:29:00.648Z,28.63
2023-03-04T11:31:33.951Z,31.60
2023-03-04T11:34:38.835Z,28.00
2023-03-04T11:37:15.624Z,30.80
2023-03-04T11:39:49.341Z,26.83
2023-03-04T11:42:38.311Z,27.52
2023-03-04T11:45:29.570Z,28.55
2023-03-04T11:47:57.705Z,27.88
2023-03-04T11:50:45.641Z,25.73
2023-03-04T11:53:18.134Z,25.98
2023-03-04T11:55:45.580Z,23.08
2023-03-04T11:58:59.293Z,25.88
2023-03-04T12:01:47.946Z,23.60
2023-03-04T12:04:33.691Z,22.70
2023-03-04T12:07:18.438Z,61.50
2023-03-04T12:10:06.308Z,22.92
2023-03-04T12:12:57.018Z,32.45
2023-03-04T12:15:40.462Z,24.13
2023-03-04T12:18:07.930Z,40.53
2023-03-04T12:20:51.571Z,22.83
2023-03-04T12:23:34.219Z,17.98
2023-03-04T12:26:12.320Z,17.08
2023-03-04T12:28:56.672Z,17.40
2023-03-04T12:31:41.779Z,16.83
2023-03-04T12:34:42.758Z,14.43
2023-03-04T12:37:17.078Z,15.30
2023-03-04T12:40:23.713Z,18.02
2023-03-04T12:43:05.961Z,34.42
2023-03-04T12:45:46.732Z,118.78
2023-03-04T12:48:36.724Z,15.35
2023-03-04T12:51:18.766Z,12.10
2023-03-04T12:54:20.906Z,150.57
2023-03-04T12:56:51.493Z,76.05
2023-03-04T12:59:23.877Z,170.90
2023-03-04T13:02:32.436Z,47.05
2023-03-04T13:05:07.442Z,59.33
2023-03-04T13:07:47.088Z,13.75
2023-03-04T13:10:18.064Z,29.40
2023-03-04T13:13:00.890Z,11.82
2023-03-04T13:18:35.757Z,10.48
2023-03-04T13:21:12.208Z,10.50
2023-03-04T13:23:40.327Z,30.05
2023-03-04T13:26:18.417Z,23.67
2023-03-04T13:28:46.132Z,19.67
2023-03-04T13:31:26.677Z,9.40
2023-03-04T13:33:57.278Z,10.95
2023-03-04T13:36:34.187Z,27.40
2023-03-04T13:39:24.667Z,8.55
2023-03-04T13:41:56.952Z,18.13
2023-03-04T13:44:42.952Z,14.00
2023-03-04T13:47:19.352Z,9.85
2023-03-04T13:49:47.156Z,9.88
2023-03-04T13:52:40.092Z,10.45
2023-03-04T13:55:32.261Z,10.73
2023-03-04T13:57:59.832Z,8.33
2023-03-04T14:00:28.808Z,9.90
2023-03-04T14:02:56.065Z,8.90
2023-03-04T14:05:23.627Z,12.88
2023-03-04T14:07:50.826Z,13.43
2023-03-04T14:10:24.751Z,11.38
2023-03-04T14:12:55.447Z,10.05
2023-03-04T14:15:35.026Z,6.45
2023-03-04T14:18:05.352Z,3.30
2023-03-04T14:20:38.351Z,4.97
2023-03-04T14:23:25.427Z,5.53
2023-03-04T14:26:02.975Z,5.10
2023-03-04T14:28:30.196Z,5.45
2023-03-04T14:30:58.338Z,6.15
2023-03-04T14:33:28.868Z,5.50
2023-03-04T14:36:01.589Z,5.75
2023-03-04T14:41:09.033Z,5.75
2023-03-04T14:43:44.802Z,6.90
2023-03-04T14:46:15.533Z,6.60
2023-03-04T14:48:51.755Z,8.93
2023-03-04T14:51:52.306Z,11.77
2023-03-04T14:54:34.911Z,9.90
2023-03-04T14:59:48.726Z,9.00
2023-03-04T15:02:33.355Z,10.88
2023-03-04T15:05:16.572Z,10.65
2023-03-04T15:07:51.355Z,11.00
2023-03-04T15:10:23.498Z,34.10
2023-03-04T15:15:41.589Z,24.63
2023-03-04T15:18:18.114Z,28.42
2023-03-04T15:20:53.596Z,10.75
2023-03-04T15:23:21.262Z,10.95
2023-03-04T15:25:55.118Z,9.65
2023-03-04T15:28:27.176Z,9.43
2023-03-04T15:30:54.659Z,10.10
2023-03-04T15:33:22.310Z,13.90
2023-03-04T15:35:59.145Z,11.45
2023-03-04T15:38:27.764Z,9.55
2023-03-04T15:40:56.555Z,6.85
2023-03-04T15:43:24.692Z,7.95
2023-03-04T15:45:53.125Z,7.00
2023-03-04T15:48:21.477Z,5.63
2023-03-04T15:51:01.296Z,7.95
2023-03-04T15:53:33.040Z,5.68
2023-03-04T15:56:01.809Z,6.13
2023-03-04T15:58:34.910Z,7.82
2023-03-04T16:01:02.859Z,7.07
2023-03-04T16:03:30.476Z,7.78
2023-03-04T16:05:59.308Z,8.80
2023-03-04T16:08:27.088Z,9.43
2023-03-04T16:10:54.835Z,9.30
2023-03-04T16:13:23.963Z,8.10
2023-03-04T16:15:51.301Z,8.18
2023-03-04T16:18:19.593Z,7.95
2023-03-04T16:20:48.926Z,7.78
2023-03-04T16:23:22.903Z,8.50
2023-03-04T16:25:53.979Z,9.07
2023-03-04T16:28:22.035Z,10.05
2023-03-04T16:30:49.976Z,10.05
2023-03-04T16:33:17.730Z,12.63
2023-03-04T16:35:46.509Z,13.75
2023-03-04T16:38:25.997Z,14.05
2023-03-04T16:40:55.046Z,12.63
2023-03-04T16:43:23.080Z,14.73
2023-03-04T16:45:50.551Z,14.82
2023-03-04T16:48:20.281Z,13.88
2023-03-04T16:50:47.789Z,13.70
2023-03-04T16:53:30.438Z,14.38
2023-03-04T16:56:01.189Z,13.27
2023-03-04T16:58:28.609Z,13.45
2023-03-04T17:00:55.963Z,10.68
2023-03-04T17:03:23.579Z,11.38
2023-03-04T17:05:50.899Z,11.18
2023-03-04T17:08:18.516Z,14.15
2023-03-04T17:10:45.760Z,16.05
2023-03-04T17:13:13.162Z,23.38
2023-03-04T17:15:42.844Z,16.98
2023-03-04T17:18:10.340Z,12.05
2023-03-04T17:20:37.605Z,32.67
2023-03-04T17:23:05.181Z,12.68
2023-03-04T17:25:32.417Z,15.98
2023-03-04T17:27:59.876Z,9.63
2023-03-04T17:30:27.109Z,12.15
2023-03-04T17:32:54.960Z,12.88
2023-03-04T17:35:22.568Z,13.52
2023-03-04T17:37:50.776Z,15.98
2023-03-04T17:40:18.131Z,17.70
2023-03-04T17:42:45.598Z,12.95
2023-03-04T17:45:13.001Z,12.57
2023-03-04T17:47:40.583Z,14.18
2023-03-04T17:50:08.912Z,10.80
2023-03-04T17:52:36.487Z,10.05
2023-03-04T17:55:04.227Z,9.55
2023-03-04T17:57:31.694Z,12.38
2023-03-04T17:59:58.942Z,13.80
2023-03-04T18:02:26.514Z,11.02
2023-03-04T18:04:53.760Z,14.32
2023-03-04T18:07:21.311Z,10.48
2023-03-04T18:09:48.548Z,11.05
2023-03-04T18:12:16.036Z,11.50
2023-03-04T18:14:43.241Z,9.98
2023-03-04T18:17:10.764Z,13.77
2023-03-04T18:19:37.966Z,16.23
2023-03-04T18:22:05.454Z,18.70
2023-03-04T18:24:32.980Z,16.48
2023-03-04T18:27:00.530Z,11.85
2023-03-04T18:29:29.523Z,9.77
2023-03-04T18:31:57.132Z,11.40
2023-03-04T18:34:24.413Z,12.70
2023-03-04T18:36:52.089Z,10.75
2023-03-04T18:39:19.319Z,12.18
2023-03-04T18:41:47.898Z,9.95
2023-03-04T18:44:15.140Z,13.98
2023-03-04T18:46:51.983Z,11.70
2023-03-04T18:49:20.288Z,12.00
2023-03-04T18:51:47.767Z,11.43
2023-03-04T18:54:15.180Z,11.73
2023-03-04T18:56:50.296Z,14.55
2023-03-04T18:59:22.845Z,14.35
2023-03-04T19:01:52.961Z,10.52
2023-03-04T19:04:23.369Z,9.18
2023-03-04T19:06:50.868Z,13.63
2023-03-04T19:09:18.020Z,11.77
2023-03-04T19:11:45.638Z,11.25
2023-03-04T19:14:12.893Z,8.00
2023-03-04T19:16:40.607Z,22.15
2023-03-04T19:19:07.902Z,8.52
2023-03-04T19:21:39.355Z,15.88
2023-03-04T19:24:07.064Z,7.63
2023-03-04T19:26:35.186Z,5.57
2023-03-04T19:29:02.375Z,7.47
2023-03-04T19:31:29.812Z,25.50
2023-03-04T19:33:57.019Z,15.13
2023-03-04T19:36:25.699Z,9.13
2023-03-04T19:38:52.944Z,8.55
2023-03-04T19:41:20.433Z,5.07
2023-03-04T19:43:47.645Z,7.60
2023-03-04T19:46:15.214Z,6.85
2023-03-04T19:48:42.425Z,6.00
2023-03-04T19:51:23.971Z,6.18
2023-03-04T19:53:51.272Z,7.45
2023-03-04T19:56:19.685Z,17.55
2023-03-04T19:58:48.309Z,8.63
2023-03-04T20:01:28.398Z,8.27
2023-03-04T20:03:58.111Z,7.28
2023-03-04T20:06:27.048Z,6.88
2023-03-04T20:08:57.961Z,6.60
2023-03-04T20:11:26.668Z,7.43
2023-03-04T20:13:55.085Z,8.15
2023-03-04T20:16:22.496Z,6.95
2023-03-04T20:18:49.802Z,13.82
2023-03-04T20:21:17.721Z,12.43
2023-03-04T20:23:45.119Z,11.85
2023-03-04T20:26:12.695Z,10.18
2023-03-04T20:28:50.711Z,13.50
2023-03-04T20:31:23.907Z,12.00
2023-03-04T20:33:51.955Z,15.32
2023-03-04T20:36:21.935Z,28.35
2023-03-04T20:38:50.361Z,14.40
2023-03-04T20:41:19.819Z,7.82
2023-03-04T20:43:47.220Z,8.90
2023-03-04T20:46:45.024Z,9.23
2023-03-04T20:49:24.618Z,10.30
2023-03-04T20:52:00.607Z,9.60
2023-03-04T20:54:27.849Z,13.93
2023-03-04T20:56:55.836Z,14.70
2023-03-04T20:59:23.099Z,14.48
2023-03-04T21:01:51.210Z,11.38
2023-03-04T21:04:19.442Z,12.95
2023-03-04T21:06:47.596Z,17.88
2023-03-04T21:09:18.205Z,15.65
2023-03-04T21:11:46.395Z,14.73
2023-03-04T21:14:21.980Z,15.85
2023-03-04T21:16:51.271Z,19.48
2023-03-04T21:19:23.849Z,18.42
2023-03-04T21:21:52.483Z,32.50
2023-03-04T21:24:22.604Z,80.63
2023-03-04T21:26:50.359Z,58.92
2023-03-04T21:29:19.877Z,26.30
2023-03-04T21:32:23.217Z,22.38
2023-03-04T21:34:52.852Z,24.67
2023-03-04T21:37:24.901Z,26.60
2023-03-04T21:39:52.724Z,27.73
2023-03-04T21:42:20.368Z,29.77
2023-03-04T21:44:50.474Z,24.90
2023-03-04T21:47:20.902Z,24.30
2023-03-04T21:49:48.540Z,24.88
2023-03-04T21:52:17.187Z,29.15
2023-03-04T21:54:44.453Z,26.25
2023-03-04T21:57:13.339Z,29.33
2023-03-04T21:59:40.635Z,30.15
2023-03-04T22:02:17.731Z,25.13
2023-03-04T22:04:45.184Z,30.00
2023-03-04T22:07:13.401Z,29.27
2023-03-04T22:09:40.678Z,30.25
2023-03-04T22:12:08.288Z,31.73
2023-03-04T22:14:35.413Z,28.58
2023-03-04T22:17:03.179Z,28.75
2023-03-04T22:19:31.893Z,28.63
2023-03-04T22:21:59.834Z,26.40
2023-03-04T22:24:27.584Z,25.45
2023-03-04T22:26:57.611Z,26.38
2023-03-04T22:29:24.820Z,23.67
2023-03-04T22:31:52.431Z,23.48
2023-03-04T22:34:19.745Z,20.65
2023-03-04T22:36:47.689Z,22.48
2023-03-04T22:39:19.320Z,21.92
2023-03-04T22:41:47.644Z,23.17
2023-03-04T22:44:14.960Z,23.38
2023-03-04T22:46:43.623Z,24.05
2023-03-04T22:49:13.303Z,24.27
2023-03-04T22:51:42.865Z,23.20
2023-03-04T22:54:14.996Z,21.58
2023-03-04T22:59:10.236Z,22.27
2023-03-04T23:01:37.734Z,20.67
2023-03-04T23:04:05.232Z,16.92
2023-03-04T23:06:32.809Z,17.30
2023-03-04T23:09:00.453Z,14.48
2023-03-04T23:11:31.443Z,18.40
2023-03-04T23:14:02.093Z,20.00
2023-03-04T23:16:29.908Z,20.20
2023-03-04T23:18:59.262Z,17.65
2023-03-04T23:21:28.394Z,17.45
2023-03-04T23:23:56.016Z,15.70
2023-03-04T23:26:26.855Z,16.25
2023-03-04T23:28:57.109Z,16.42
2023-03-04T23:31:25.775Z,14.43
2023-03-04T23:33:57.245Z,14.23
2023-03-04T23:36:31.042Z,13.82
2023-03-04T23:38:58.674Z,13.25
2023-03-04T23:41:28.809Z,14.57
2023-03-04T23:43:57.606Z,11.68
2023-03-04T23:46:26.286Z,11.45
2023-03-04T23:48:54.600Z,10.75
2023-03-04T23:51:25.342Z,10.55
2023-03-04T23:53:52.630Z,11.18
2023-03-04T23:56:23.263Z,10.00
2023-03-04T23:58:50.757Z,9.05
